createdAt,value
2023-03-12T00:01:45.506Z,2.95
2023-03-12T00:04:46.796Z,2.33
2023-03-12T00:07:48.507Z,2.63
2023-03-12T00:10:49.838Z,5.10
2023-03-12T00:13:51.947Z,2.08
2023-03-12T00:16:53.238Z,2.10
2023-03-12T00:19:54.497Z,1.88
2023-03-12T00:22:55.749Z,1.80
2023-03-12T00:26:04.070Z,1.77
2023-03-12T00:29:05.395Z,2.25
2023-03-12T00:32:06.958Z,2.95
2023-03-12T00:35:08.398Z,1.80
2023-03-12T00:38:09.747Z,2.90
2023-03-12T00:41:11.106Z,3.50
2023-03-12T00:44:12.434Z,1.63
2023-03-12T00:47:13.799Z,2.40
2023-03-12T00:50:15.262Z,3.80
2023-03-12T00:53:16.587Z,3.72
2023-03-12T00:56:17.972Z,1.63
2023-03-12T00:59:19.286Z,2.65
2023-03-12T01:02:20.568Z,2.92
2023-03-12T01:05:21.898Z,2.70
2023-03-12T01:08:23.550Z,2.97
2023-03-12T01:11:24.942Z,3.70
2023-03-12T01:14:26.198Z,3.30
2023-03-12T01:17:27.492Z,3.70
2023-03-12T01:20:28.801Z,3.30
2023-03-12T01:23:30.102Z,2.78
2023-03-12T01:26:31.438Z,2.95
2023-03-12T01:29:32.732Z,2.17
2023-03-12T01:32:34.035Z,1.90
2023-03-12T01:35:36.426Z,2.42
2023-03-12T01:38:37.881Z,3.20
2023-03-12T01:41:39.166Z,2.63
2023-03-12T01:44:49.648Z,3.45
2023-03-12T01:47:50.879Z,2.47
2023-03-12T01:50:52.190Z,2.53
2023-03-12T01:53:56.175Z,3.50
2023-03-12T01:56:58.185Z,2.20
2023-03-12T02:00:08.035Z,2.50
2023-03-12T02:03:10.241Z,3.42
2023-03-12T02:06:12.974Z,2.58
2023-03-12T02:09:14.245Z,3.28
2023-03-12T02:12:16.186Z,2.05
2023-03-12T02:15:17.728Z,2.60
2023-03-12T02:18:19.239Z,3.50
2023-03-12T02:21:22.447Z,3.80
2023-03-12T02:24:46.254Z,1.92
2023-03-12T02:27:48.135Z,2.92
2023-03-12T02:30:52.278Z,2.33
2023-03-12T02:33:55.811Z,3.55
2023-03-12T02:36:57.097Z,2.90
2023-03-12T02:40:02.339Z,2.40
2023-03-12T02:46:04.887Z,2.08
2023-03-12T02:49:06.311Z,2.00
2023-03-12T02:52:07.637Z,2.22
2023-03-12T02:55:09.371Z,3.30
2023-03-12T02:58:10.612Z,2.63
2023-03-12T03:01:11.884Z,2.30
2023-03-12T03:04:13.830Z,2.97
2023-03-12T03:07:15.156Z,2.85
2023-03-12T03:10:17.435Z,2.22
2023-03-12T03:13:18.763Z,2.53
2023-03-12T03:16:20.924Z,2.75
2023-03-12T03:19:22.250Z,3.13
2023-03-12T03:22:23.582Z,2.58
2023-03-12T03:25:24.953Z,2.42
2023-03-12T03:28:28.187Z,1.83
2023-03-12T03:31:29.517Z,1.83
2023-03-12T03:34:30.970Z,2.35
2023-03-12T03:37:32.243Z,3.78
2023-03-12T03:40:33.554Z,1.98
2023-03-12T03:43:34.840Z,1.75
2023-03-12T03:46:36.130Z,2.78
2023-03-12T03:49:37.392Z,2.35
2023-03-12T03:52:38.652Z,2.10
2023-03-12T03:55:40.220Z,1.92
2023-03-12T03:58:41.523Z,2.85
2023-03-12T04:01:42.822Z,2.25
2023-03-12T04:04:44.403Z,2.85
2023-03-12T04:07:45.719Z,2.15
2023-03-12T04:10:47.013Z,2.40
2023-03-12T04:13:48.746Z,1.85
2023-03-12T04:16:50.140Z,1.92
2023-03-12T04:19:51.515Z,2.20
2023-03-12T04:22:52.857Z,3.17
2023-03-12T04:25:54.130Z,2.45
2023-03-12T04:28:55.453Z,1.88
2023-03-12T04:31:56.821Z,3.00
2023-03-12T04:34:58.079Z,2.40
2023-03-12T04:38:00.620Z,2.83
2023-03-12T04:41:03.257Z,2.60
2023-03-12T04:44:05.061Z,1.85
2023-03-12T04:47:06.519Z,2.45
2023-03-12T04:50:08.278Z,2.65
2023-03-12T04:53:09.629Z,2.58
2023-03-12T04:56:11.063Z,2.72
2023-03-12T04:59:12.318Z,2.80
2023-03-12T05:02:13.594Z,3.33
2023-03-12T05:05:14.883Z,3.17
2023-03-12T05:08:16.163Z,2.10
2023-03-12T05:11:17.855Z,3.53
2023-03-12T05:14:19.308Z,2.40
2023-03-12T05:17:21.019Z,3.22
2023-03-12T05:20:22.385Z,1.33
2023-03-12T05:23:23.667Z,1.67
2023-03-12T05:26:29.222Z,2.83
2023-03-12T05:29:35.513Z,1.58
2023-03-12T05:32:36.817Z,1.85
2023-03-12T05:35:38.098Z,1.67
2023-03-12T05:38:39.851Z,3.08
2023-03-12T05:41:41.136Z,2.83
2023-03-12T05:44:42.998Z,1.65
2023-03-12T05:47:44.251Z,2.25
2023-03-12T05:50:45.897Z,2.42
2023-03-12T05:53:47.450Z,3.10
2023-03-12T05:56:48.761Z,2.85
2023-03-12T05:59:50.115Z,1.95
2023-03-12T06:02:51.353Z,2.55
2023-03-12T06:05:55.160Z,2.92
2023-03-12T06:08:56.434Z,2.67
2023-03-12T06:11:57.713Z,2.10
2023-03-12T06:14:58.979Z,2.70
2023-03-12T06:18:00.275Z,1.92
2023-03-12T06:21:11.970Z,2.13
2023-03-12T06:27:14.751Z,1.90
2023-03-12T06:30:16.231Z,2.33
2023-03-12T06:33:17.525Z,1.88
2023-03-12T06:36:22.961Z,2.05
2023-03-12T06:39:24.368Z,1.80
2023-03-12T06:42:26.514Z,1.90
2023-03-12T06:45:27.767Z,2.20
2023-03-12T06:48:29.770Z,1.95
2023-03-12T06:51:31.036Z,2.30
2023-03-12T06:54:32.470Z,2.05
2023-03-12T06:57:33.700Z,1.90
2023-03-12T07:00:35.381Z,1.83
2023-03-12T07:03:37.350Z,1.70
2023-03-12T07:06:38.622Z,3.00
2023-03-12T07:09:39.948Z,2.90
2023-03-12T07:12:41.255Z,2.42
2023-03-12T07:15:42.633Z,1.95
2023-03-12T07:18:43.960Z,1.98
2023-03-12T07:21:45.271Z,1.48
2023-03-12T07:24:46.603Z,2.92
2023-03-12T07:27:47.905Z,4.55
2023-03-12T07:30:50.642Z,4.13
2023-03-12T07:33:52.068Z,2.58
2023-03-12T07:36:54.870Z,2.75
2023-03-12T07:39:56.471Z,1.92
2023-03-12T07:42:58.020Z,2.42
2023-03-12T07:45:59.265Z,2.17
2023-03-12T07:49:00.957Z,1.88
2023-03-12T07:52:02.916Z,1.90
2023-03-12T07:55:04.486Z,2.00
2023-03-12T07:58:05.926Z,1.67
2023-03-12T08:01:07.500Z,1.65
2023-03-12T08:04:09.389Z,1.75
2023-03-12T08:07:10.825Z,2.28
2023-03-12T08:10:12.210Z,1.80
2023-03-12T08:13:13.608Z,2.38
2023-03-12T08:16:14.955Z,2.33
2023-03-12T08:19:16.362Z,2.35
2023-03-12T08:22:17.621Z,2.33
2023-03-12T08:25:20.991Z,2.30
2023-03-12T08:28:23.292Z,2.85
2023-03-12T08:31:24.623Z,1.88
2023-03-12T08:34:25.901Z,1.85
2023-03-12T08:37:27.166Z,2.47
2023-03-12T08:40:28.560Z,2.45
2023-03-12T08:43:29.899Z,3.58
2023-03-12T08:46:31.228Z,2.35
2023-03-12T08:49:32.714Z,3.08
2023-03-12T08:52:34.065Z,3.20
2023-03-12T08:55:35.340Z,2.67
2023-03-12T08:58:36.646Z,3.35
2023-03-12T09:01:38.208Z,2.95
2023-03-12T09:04:39.553Z,4.28
2023-03-12T09:07:41.167Z,3.53
2023-03-12T09:10:47.254Z,4.30
2023-03-12T09:14:28.091Z,3.08
2023-03-12T09:17:09.841Z,2.70
2023-03-12T09:20:14.459Z,3.05
2023-03-12T09:23:15.719Z,2.80
2023-03-12T09:26:17.093Z,3.00
2023-03-12T09:29:18.363Z,2.42
2023-03-12T09:32:19.676Z,3.45
2023-03-12T09:35:21.050Z,2.40
2023-03-12T09:38:22.304Z,3.25
2023-03-12T09:41:25.827Z,1.88
2023-03-12T09:44:40.894Z,3.28
2023-03-12T09:47:53.059Z,2.28
2023-03-12T09:50:54.670Z,1.70
2023-03-12T09:53:57.191Z,3.20
2023-03-12T09:57:00.451Z,2.38
2023-03-12T10:00:01.812Z,2.90
2023-03-12T10:03:12.330Z,1.55
2023-03-12T10:06:20.291Z,2.25
2023-03-12T10:09:31.208Z,2.67
2023-03-12T10:12:47.731Z,2.72
2023-03-12T10:15:49.291Z,2.83
2023-03-12T10:18:56.912Z,2.88
2023-03-12T10:22:03.526Z,2.67
2023-03-12T10:25:12.332Z,3.03
2023-03-12T10:28:13.785Z,3.28
2023-03-12T10:31:38.475Z,3.70
2023-03-12T10:34:48.894Z,3.15
2023-03-12T10:37:51.369Z,3.28
2023-03-12T10:40:52.741Z,2.85
2023-03-12T10:43:54.772Z,3.58
2023-03-12T10:47:06.298Z,3.45
2023-03-12T10:50:13.449Z,7.13
2023-03-12T10:53:22.848Z,3.67
2023-03-12T10:56:24.280Z,2.53
2023-03-12T10:59:28.160Z,3.28
2023-03-12T11:02:34.501Z,3.60
2023-03-12T11:05:52.703Z,3.65
2023-03-12T11:09:21.100Z,3.92
2023-03-12T11:12:31.653Z,4.03
2023-03-12T11:15:35.719Z,3.15
2023-03-12T11:18:37.565Z,4.95
2023-03-12T11:21:40.216Z,5.32
2023-03-12T11:25:00.402Z,3.65
2023-03-12T11:28:03.056Z,4.03
2023-03-12T11:31:06.013Z,4.97
2023-03-12T11:34:10.415Z,3.38
2023-03-12T11:37:30.553Z,3.72
2023-03-12T11:40:46.944Z,8.95
2023-03-12T11:44:00.534Z,4.35
2023-03-12T11:47:07.660Z,4.57
2023-03-12T11:50:15.031Z,6.82
2023-03-12T11:53:28.398Z,5.95
2023-03-12T11:56:49.990Z,4.50
2023-03-12T12:00:12.090Z,3.78
2023-03-12T12:03:31.601Z,4.18
2023-03-12T12:06:56.300Z,3.78
2023-03-12T12:10:10.205Z,4.82
2023-03-12T12:13:17.939Z,4.22
2023-03-12T12:16:26.445Z,4.82
2023-03-12T12:19:36.775Z,4.28
2023-03-12T12:22:53.431Z,5.00
2023-03-12T12:26:08.885Z,4.57
2023-03-12T12:29:10.120Z,4.30
2023-03-12T12:32:17.715Z,4.63
2023-03-12T12:35:19.777Z,4.60
2023-03-12T12:38:30.382Z,5.47
2023-03-12T12:41:37.229Z,5.13
2023-03-12T12:44:42.352Z,4.70
2023-03-12T12:47:48.958Z,4.05
2023-03-12T12:50:51.670Z,4.32
2023-03-12T12:53:52.933Z,4.40
2023-03-12T12:57:06.273Z,5.35
2023-03-12T13:00:23.061Z,4.53
2023-03-12T13:03:25.319Z,3.70
2023-03-12T13:06:29.228Z,4.35
2023-03-12T13:09:36.766Z,3.80
2023-03-12T13:12:55.082Z,3.53
2023-03-12T13:16:14.958Z,3.10
2023-03-12T13:19:16.334Z,3.42
2023-03-12T13:22:41.104Z,3.30
2023-03-12T13:25:57.178Z,4.45
2023-03-12T13:29:12.002Z,3.40
2023-03-12T13:32:33.037Z,3.95
2023-03-12T13:35:38.165Z,3.95
2023-03-12T13:38:53.244Z,4.47
2023-03-12T13:41:55.212Z,6.05
2023-03-12T13:45:11.036Z,4.63
2023-03-12T13:48:15.739Z,3.97
2023-03-12T13:51:18.917Z,4.65
2023-03-12T13:54:22.971Z,4.28
2023-03-12T13:57:50.770Z,3.38
2023-03-12T14:00:56.717Z,2.47
2023-03-12T14:04:07.316Z,1.92
2023-03-12T14:10:16.938Z,2.10
2023-03-12T14:13:34.891Z,1.90
2023-03-12T14:16:36.135Z,1.77
2023-03-12T14:19:37.458Z,1.40
2023-03-12T14:22:39.531Z,1.50
2023-03-12T14:25:43.484Z,1.55
2023-03-12T14:31:47.202Z,1.70
2023-03-12T14:34:53.795Z,1.90
2023-03-12T14:38:05.163Z,1.55
2023-03-12T14:41:13.541Z,2.00
2023-03-12T14:44:20.845Z,1.77
2023-03-12T14:47:22.204Z,1.50
2023-03-12T14:50:26.352Z,1.10
2023-03-12T14:53:29.281Z,1.73
2023-03-12T14:56:32.966Z,1.70
2023-03-12T14:59:38.991Z,1.40
2023-03-12T15:02:41.118Z,1.23
2023-03-12T15:05:49.388Z,1.15
2023-03-12T15:08:51.048Z,1.25
2023-03-12T15:11:57.198Z,1.23
2023-03-12T15:15:09.392Z,1.25
2023-03-12T15:18:16.557Z,1.52
2023-03-12T15:21:18.092Z,1.58
2023-03-12T15:24:19.815Z,1.30
2023-03-12T15:27:21.134Z,1.25
2023-03-12T15:30:26.441Z,1.60
2023-03-12T15:33:27.710Z,0.85
2023-03-12T15:36:29.916Z,1.27
2023-03-12T15:39:32.331Z,1.83
2023-03-12T15:42:38.552Z,1.80
2023-03-12T15:45:40.474Z,1.80
2023-03-12T15:48:47.153Z,1.55
2023-03-12T15:52:06.913Z,1.25
2023-03-12T15:55:14.090Z,2.00
2023-03-12T15:58:26.619Z,1.65
2023-03-12T16:01:28.322Z,1.23
2023-03-12T16:04:29.617Z,1.40
2023-03-12T16:07:30.876Z,1.70
2023-03-12T16:10:34.613Z,2.00
2023-03-12T16:13:37.186Z,2.08
2023-03-12T16:16:38.546Z,1.83
2023-03-12T16:19:40.019Z,1.35
2023-03-12T16:22:41.540Z,1.30
2023-03-12T16:25:49.760Z,1.23
2023-03-12T16:28:51.128Z,1.45
2023-03-12T16:31:54.257Z,1.38
2023-03-12T16:34:55.688Z,1.92
2023-03-12T16:37:58.048Z,1.73
2023-03-12T16:40:59.463Z,1.88
2023-03-12T16:44:01.133Z,1.52
2023-03-12T16:47:02.396Z,1.40
2023-03-12T16:50:08.982Z,1.45
2023-03-12T16:53:11.087Z,1.58
2023-03-12T16:56:20.405Z,1.60
2023-03-12T16:59:28.776Z,2.03
2023-03-12T17:02:30.205Z,1.20
2023-03-12T17:05:31.761Z,1.10
2023-03-12T17:08:33.104Z,1.27
2023-03-12T17:11:35.956Z,1.10
2023-03-12T17:14:37.344Z,1.50
2023-03-12T17:17:38.652Z,1.27
2023-03-12T17:20:40.424Z,1.55
2023-03-12T17:23:41.900Z,1.02
2023-03-12T17:26:45.315Z,1.42
2023-03-12T17:29:46.733Z,1.27
2023-03-12T17:32:48.696Z,1.08
2023-03-12T17:35:59.865Z,1.00
2023-03-12T17:39:01.200Z,1.77
2023-03-12T17:42:03.812Z,1.17
2023-03-12T17:45:05.974Z,1.25
2023-03-12T17:48:07.271Z,1.27
2023-03-12T17:51:10.076Z,1.25
2023-03-12T17:54:12.215Z,1.13
2023-03-12T17:57:13.500Z,1.15
2023-03-12T18:00:15.044Z,1.00
2023-03-12T18:03:16.433Z,1.15
2023-03-12T18:06:19.782Z,1.52
2023-03-12T18:09:21.525Z,2.10
2023-03-12T18:12:22.828Z,1.55
2023-03-12T18:15:24.138Z,1.30
2023-03-12T18:18:26.145Z,1.55
2023-03-12T18:21:27.520Z,1.77
2023-03-12T18:24:28.782Z,2.30
2023-03-12T18:27:30.100Z,4.80
2023-03-12T18:30:31.390Z,7.18
2023-03-12T18:33:32.823Z,4.03
2023-03-12T18:36:34.117Z,1.90
2023-03-12T18:39:35.459Z,1.38
2023-03-12T18:42:36.781Z,1.65
2023-03-12T18:45:40.998Z,1.88
2023-03-12T18:48:44.197Z,2.45
2023-03-12T18:51:45.982Z,1.88
2023-03-12T18:54:47.380Z,1.95
2023-03-12T18:57:48.837Z,1.45
2023-03-12T19:00:53.496Z,2.42
2023-03-12T19:03:54.909Z,1.83
2023-03-12T19:06:56.181Z,1.92
2023-03-12T19:09:57.495Z,2.58
2023-03-12T19:12:59.216Z,1.92
2023-03-12T19:16:01.711Z,2.80
2023-03-12T19:19:03.040Z,2.33
2023-03-12T19:22:04.756Z,1.95
2023-03-12T19:25:06.282Z,2.42
2023-03-12T19:28:07.599Z,1.75
2023-03-12T19:31:10.436Z,1.30
2023-03-12T19:34:11.740Z,1.35
2023-03-12T19:37:13.135Z,2.08
2023-03-12T19:40:14.472Z,1.80
2023-03-12T19:43:15.764Z,1.90
2023-03-12T19:46:17.224Z,2.15
2023-03-12T19:49:18.679Z,1.50
2023-03-12T19:52:20.176Z,2.13
2023-03-12T19:55:21.430Z,1.90
2023-03-12T19:58:22.726Z,1.90
2023-03-12T20:01:24.766Z,2.10
2023-03-12T20:04:26.018Z,2.63
2023-03-12T20:07:27.373Z,2.55
2023-03-12T20:10:29.349Z,2.40
2023-03-12T20:13:31.056Z,2.65
2023-03-12T20:16:32.397Z,2.13
2023-03-12T20:19:33.737Z,2.00
2023-03-12T20:22:37.833Z,1.40
2023-03-12T20:25:39.709Z,1.60
2023-03-12T20:28:41.700Z,1.88
2023-03-12T20:31:43.066Z,1.70
2023-03-12T20:34:44.484Z,2.38
2023-03-12T20:37:45.752Z,2.00
2023-03-12T20:40:47.183Z,1.85
2023-03-12T20:43:48.628Z,2.45
2023-03-12T20:46:49.986Z,2.25
2023-03-12T20:49:51.580Z,3.80
2023-03-12T20:52:53.008Z,3.45
2023-03-12T20:55:54.435Z,3.22
2023-03-12T20:58:55.848Z,2.42
2023-03-12T21:01:57.129Z,3.17
2023-03-12T21:04:58.460Z,2.40
2023-03-12T21:08:00.537Z,2.05
2023-03-12T21:11:05.038Z,2.22
2023-03-12T21:17:09.688Z,2.17
2023-03-12T21:20:18.772Z,2.15
2023-03-12T21:23:20.125Z,1.70
2023-03-12T21:26:21.955Z,3.58
2023-03-12T21:29:23.301Z,1.70
2023-03-12T21:32:24.700Z,2.60
2023-03-12T21:35:26.113Z,1.73
2023-03-12T21:38:27.397Z,2.15
2023-03-12T21:41:28.665Z,2.08
2023-03-12T21:44:30.088Z,2.50
2023-03-12T21:47:31.423Z,2.65
2023-03-12T21:50:32.797Z,2.00
2023-03-12T21:53:34.568Z,2.40
2023-03-12T21:56:35.941Z,1.75
2023-03-12T21:59:37.234Z,1.63
2023-03-12T22:02:41.940Z,1.30
2023-03-12T22:05:43.277Z,2.40
2023-03-12T22:08:45.308Z,1.75
2023-03-12T22:11:46.660Z,1.88
2023-03-12T22:14:48.120Z,2.15
2023-03-12T22:17:49.784Z,3.45
2023-03-12T22:20:52.014Z,2.22
2023-03-12T22:23:53.935Z,2.30
2023-03-12T22:26:55.193Z,1.70
2023-03-12T22:29:57.385Z,2.28
2023-03-12T22:32:58.756Z,2.55
2023-03-12T22:36:00.173Z,1.83
2023-03-12T22:39:01.519Z,1.67
2023-03-12T22:42:02.966Z,1.60
2023-03-12T22:45:04.861Z,2.13
2023-03-12T22:48:06.374Z,2.22
2023-03-12T22:51:07.614Z,2.30
2023-03-12T22:54:08.977Z,1.80
2023-03-12T22:57:10.280Z,3.28
2023-03-12T23:00:12.982Z,1.70
2023-03-12T23:03:14.249Z,1.83
2023-03-12T23:06:17.488Z,1.60
2023-03-12T23:09:18.902Z,1.13
2023-03-12T23:12:20.138Z,1.40
2023-03-12T23:15:24.519Z,1.95
2023-03-12T23:18:30.513Z,1.30
2023-03-12T23:21:31.872Z,1.48
2023-03-12T23:24:33.151Z,1.83
2023-03-12T23:27:34.418Z,2.40
2023-03-12T23:30:35.705Z,1.83
2023-03-12T23:33:37.593Z,2.10
2023-03-12T23:36:39.119Z,2.28
2023-03-12T23:39:53.572Z,2.53
2023-03-12T23:42:55.591Z,1.20
2023-03-12T23:45:58.245Z,1.27
2023-03-12T23:48:59.714Z,1.77
2023-03-12T23:52:01.094Z,1.45
2023-03-12T23:55:02.446Z,1.52
2023-03-12T23:58:03.838Z,1.88
